sensor_id;sensor_type;location;lat;lon;timestamp;P1;durP1;ratioP1;P2;durP2;ratioP2
3006;SDS011;1513;47.650;10.720;2022-10-16T00:00:37;2.10;;;1.53;;
3006;SDS011;1513;47.650;10.720;2022-10-16T00:03:42;5.33;;;1.80;;
3006;SDS011;1513;47.650;10.720;2022-10-16T00:06:46;2.50;;;2.00;;
3006;SDS011;1513;47.650;10.720;2022-10-16T00:09:50;3.30;;;2.10;;
3006;SDS011;1513;47.650;10.720;2022-10-16T00:12:53;2.80;;;1.80;;
3006;SDS011;1513;47.650;10.720;2022-10-16T00:15:57;1.70;;;1.60;;
3006;SDS011;1513;47.650;10.720;2022-10-16T00:19:02;2.00;;;1.60;;
3006;SDS011;1513;47.650;10.720;2022-10-16T00:22:06;3.40;;;1.97;;
3006;SDS011;1513;47.650;10.720;2022-10-16T00:25:10;3.27;;;1.80;;
3006;SDS011;1513;47.650;10.720;2022-10-16T00:28:13;2.87;;;1.80;;
3006;SDS011;1513;47.650;10.720;2022-10-16T00:31:17;2.37;;;2.10;;
3006;SDS011;1513;47.650;10.720;2022-10-16T00:34:22;3.13;;;2.10;;
3006;SDS011;1513;47.650;10.720;2022-10-16T00:37:26;2.77;;;2.10;;
3006;SDS011;1513;47.650;10.720;2022-10-16T00:40:29;1.93;;;1.60;;
3006;SDS011;1513;47.650;10.720;2022-10-16T00:43:41;4.83;;;1.63;;
3006;SDS011;1513;47.650;10.720;2022-10-16T00:46:46;1.63;;;1.50;;
3006;SDS011;1513;47.650;10.720;2022-10-16T00:49:50;1.77;;;1.67;;
3006;SDS011;1513;47.650;10.720;2022-10-16T00:52:56;1.70;;;1.60;;
3006;SDS011;1513;47.650;10.720;2022-10-16T00:56:00;3.83;;;1.90;;
3006;SDS011;1513;47.650;10.720;2022-10-16T00:59:06;5.23;;;1.83;;
3006;SDS011;1513;47.650;10.720;2022-10-16T01:02:14;1.73;;;1.63;;
3006;SDS011;1513;47.650;10.720;2022-10-16T01:05:19;1.90;;;1.70;;
3006;SDS011;1513;47.650;10.720;2022-10-16T01:08:27;1.60;;;1.50;;
3006;SDS011;1513;47.650;10.720;2022-10-16T01:15:06;1.83;;;1.57;;
3006;SDS011;1513;47.650;10.720;2022-10-16T01:18:18;3.23;;;1.83;;
3006;SDS011;1513;47.650;10.720;2022-10-16T01:21:29;1.60;;;1.50;;
3006;SDS011;1513;47.650;10.720;2022-10-16T01:24:44;6.10;;;1.90;;
3006;SDS011;1513;47.650;10.720;2022-10-16T01:27:49;2.10;;;1.90;;
3006;SDS011;1513;47.650;10.720;2022-10-16T01:30:54;3.03;;;1.57;;
3006;SDS011;1513;47.650;10.720;2022-10-16T01:37:29;1.97;;;1.50;;
3006;SDS011;1513;47.650;10.720;2022-10-16T01:40:47;2.20;;;1.30;;
3006;SDS011;1513;47.650;10.720;2022-10-16T01:43:56;1.93;;;1.73;;
3006;SDS011;1513;47.650;10.720;2022-10-16T01:47:01;2.10;;;1.30;;
3006;SDS011;1513;47.650;10.720;2022-10-16T01:50:05;2.87;;;1.40;;
3006;SDS011;1513;47.650;10.720;2022-10-16T01:53:11;2.97;;;1.50;;
3006;SDS011;1513;47.650;10.720;2022-10-16T01:56:15;1.70;;;1.60;;
3006;SDS011;1513;47.650;10.720;2022-10-16T01:59:20;2.83;;;1.60;;
3006;SDS011;1513;47.650;10.720;2022-10-16T02:02:26;2.03;;;1.83;;
3006;SDS011;1513;47.650;10.720;2022-10-16T02:05:39;1.67;;;1.57;;
3006;SDS011;1513;47.650;10.720;2022-10-16T02:08:44;1.70;;;1.60;;
3006;SDS011;1513;47.650;10.720;2022-10-16T02:11:48;1.50;;;1.40;;
3006;SDS011;1513;47.650;10.720;2022-10-16T02:14:53;2.80;;;1.33;;
3006;SDS011;1513;47.650;10.720;2022-10-16T02:17:57;1.40;;;1.30;;
3006;SDS011;1513;47.650;10.720;2022-10-16T02:21:02;2.23;;;1.40;;
3006;SDS011;1513;47.650;10.720;2022-10-16T02:27:33;2.40;;;1.20;;
3006;SDS011;1513;47.650;10.720;2022-10-16T02:30:45;2.10;;;1.40;;
3006;SDS011;1513;47.650;10.720;2022-10-16T02:33:54;2.77;;;1.50;;
3006;SDS011;1513;47.650;10.720;2022-10-16T02:37:00;1.63;;;1.53;;
3006;SDS011;1513;47.650;10.720;2022-10-16T02:40:05;1.20;;;1.10;;
3006;SDS011;1513;47.650;10.720;2022-10-16T02:43:10;2.60;;;1.50;;
3006;SDS011;1513;47.650;10.720;2022-10-16T02:46:13;1.27;;;1.17;;
3006;SDS011;1513;47.650;10.720;2022-10-16T02:49:17;1.00;;;1.00;;
3006;SDS011;1513;47.650;10.720;2022-10-16T02:52:21;1.60;;;1.50;;
3006;SDS011;1513;47.650;10.720;2022-10-16T02:55:24;1.00;;;1.00;;
3006;SDS011;1513;47.650;10.720;2022-10-16T02:58:28;4.00;;;1.60;;
3006;SDS011;1513;47.650;10.720;2022-10-16T03:01:32;1.10;;;1.00;;
3006;SDS011;1513;47.650;10.720;2022-10-16T03:04:36;3.67;;;1.50;;
3006;SDS011;1513;47.650;10.720;2022-10-16T03:07:39;1.47;;;1.20;;
3006;SDS011;1513;47.650;10.720;2022-10-16T03:10:43;1.47;;;1.37;;
3006;SDS011;1513;47.650;10.720;2022-10-16T03:13:46;1.10;;;1.00;;
3006;SDS011;1513;47.650;10.720;2022-10-16T03:16:50;1.10;;;1.10;;
3006;SDS011;1513;47.650;10.720;2022-10-16T03:19:54;1.17;;;1.10;;
3006;SDS011;1513;47.650;10.720;2022-10-16T03:22:57;2.10;;;1.20;;
3006;SDS011;1513;47.650;10.720;2022-10-16T03:26:01;1.77;;;1.50;;
3006;SDS011;1513;47.650;10.720;2022-10-16T03:29:04;3.90;;;1.27;;
3006;SDS011;1513;47.650;10.720;2022-10-16T03:32:09;1.27;;;1.27;;
3006;SDS011;1513;47.650;10.720;2022-10-16T03:35:12;4.33;;;1.30;;
3006;SDS011;1513;47.650;10.720;2022-10-16T03:38:15;2.50;;;1.20;;
3006;SDS011;1513;47.650;10.720;2022-10-16T03:41:19;1.30;;;1.20;;
3006;SDS011;1513;47.650;10.720;2022-10-16T03:44:22;1.43;;;1.30;;
3006;SDS011;1513;47.650;10.720;2022-10-16T03:47:26;1.90;;;1.10;;
3006;SDS011;1513;47.650;10.720;2022-10-16T03:50:29;2.63;;;1.50;;
3006;SDS011;1513;47.650;10.720;2022-10-16T03:53:33;1.83;;;1.53;;
3006;SDS011;1513;47.650;10.720;2022-10-16T03:56:36;2.33;;;1.40;;
3006;SDS011;1513;47.650;10.720;2022-10-16T03:59:40;1.77;;;1.50;;
3006;SDS011;1513;47.650;10.720;2022-10-16T04:02:43;1.37;;;1.27;;
3006;SDS011;1513;47.650;10.720;2022-10-16T04:05:47;1.50;;;1.30;;
3006;SDS011;1513;47.650;10.720;2022-10-16T04:08:51;1.73;;;1.47;;
3006;SDS011;1513;47.650;10.720;2022-10-16T04:11:54;1.40;;;1.30;;
3006;SDS011;1513;47.650;10.720;2022-10-16T04:14:57;1.43;;;1.30;;
3006;SDS011;1513;47.650;10.720;2022-10-16T04:18:01;1.80;;;1.60;;
3006;SDS011;1513;47.650;10.720;2022-10-16T04:21:05;2.17;;;1.27;;
3006;SDS011;1513;47.650;10.720;2022-10-16T04:24:09;1.30;;;1.20;;
3006;SDS011;1513;47.650;10.720;2022-10-16T04:27:13;2.63;;;1.23;;
3006;SDS011;1513;47.650;10.720;2022-10-16T04:30:17;1.27;;;1.17;;
3006;SDS011;1513;47.650;10.720;2022-10-16T04:33:21;1.50;;;1.40;;
3006;SDS011;1513;47.650;10.720;2022-10-16T04:36:25;1.80;;;1.70;;
3006;SDS011;1513;47.650;10.720;2022-10-16T04:39:28;2.30;;;1.40;;
3006;SDS011;1513;47.650;10.720;2022-10-16T04:42:31;2.90;;;1.30;;
3006;SDS011;1513;47.650;10.720;2022-10-16T04:45:35;1.73;;;1.63;;
3006;SDS011;1513;47.650;10.720;2022-10-16T04:48:38;1.63;;;1.53;;
3006;SDS011;1513;47.650;10.720;2022-10-16T04:51:42;2.07;;;1.50;;
3006;SDS011;1513;47.650;10.720;2022-10-16T04:54:45;2.60;;;1.93;;
3006;SDS011;1513;47.650;10.720;2022-10-16T04:57:49;1.70;;;1.60;;
3006;SDS011;1513;47.650;10.720;2022-10-16T05:00:53;2.13;;;1.70;;
3006;SDS011;1513;47.650;10.720;2022-10-16T05:03:56;1.63;;;1.53;;
3006;SDS011;1513;47.650;10.720;2022-10-16T05:07:00;1.47;;;1.37;;
3006;SDS011;1513;47.650;10.720;2022-10-16T05:10:03;2.20;;;1.60;;
3006;SDS011;1513;47.650;10.720;2022-10-16T05:13:07;3.13;;;1.67;;
3006;SDS011;1513;47.650;10.720;2022-10-16T05:16:11;1.90;;;1.80;;
3006;SDS011;1513;47.650;10.720;2022-10-16T05:19:14;3.03;;;1.87;;
3006;SDS011;1513;47.650;10.720;2022-10-16T05:22:18;2.53;;;2.00;;
3006;SDS011;1513;47.650;10.720;2022-10-16T05:25:21;1.77;;;1.63;;
3006;SDS011;1513;47.650;10.720;2022-10-16T05:28:25;3.90;;;2.20;;
3006;SDS011;1513;47.650;10.720;2022-10-16T05:31:29;4.00;;;2.10;;
3006;SDS011;1513;47.650;10.720;2022-10-16T05:34:33;2.57;;;1.90;;
3006;SDS011;1513;47.650;10.720;2022-10-16T05:37:37;3.70;;;2.67;;
3006;SDS011;1513;47.650;10.720;2022-10-16T05:40:40;2.10;;;1.83;;
3006;SDS011;1513;47.650;10.720;2022-10-16T05:43:44;2.73;;;1.73;;
3006;SDS011;1513;47.650;10.720;2022-10-16T05:46:47;2.60;;;2.40;;
3006;SDS011;1513;47.650;10.720;2022-10-16T05:49:51;1.73;;;1.63;;
3006;SDS011;1513;47.650;10.720;2022-10-16T05:52:55;1.90;;;1.80;;
3006;SDS011;1513;47.650;10.720;2022-10-16T05:56:00;5.90;;;2.87;;
3006;SDS011;1513;47.650;10.720;2022-10-16T05:59:04;3.60;;;1.63;;
3006;SDS011;1513;47.650;10.720;2022-10-16T06:02:08;5.67;;;1.73;;
3006;SDS011;1513;47.650;10.720;2022-10-16T06:05:15;3.73;;;2.67;;
3006;SDS011;1513;47.650;10.720;2022-10-16T06:08:20;3.80;;;2.17;;
3006;SDS011;1513;47.650;10.720;2022-10-16T06:11:25;6.03;;;2.13;;
3006;SDS011;1513;47.650;10.720;2022-10-16T06:14:30;2.00;;;1.90;;
3006;SDS011;1513;47.650;10.720;2022-10-16T06:17:34;2.20;;;2.03;;
3006;SDS011;1513;47.650;10.720;2022-10-16T06:20:38;4.07;;;1.77;;
3006;SDS011;1513;47.650;10.720;2022-10-16T06:23:42;7.03;;;1.93;;
3006;SDS011;1513;47.650;10.720;2022-10-16T06:26:45;2.40;;;2.30;;
3006;SDS011;1513;47.650;10.720;2022-10-16T06:29:48;7.90;;;2.17;;
3006;SDS011;1513;47.650;10.720;2022-10-16T06:32:52;7.30;;;2.40;;
3006;SDS011;1513;47.650;10.720;2022-10-16T06:36:09;5.07;;;2.27;;
3006;SDS011;1513;47.650;10.720;2022-10-16T06:39:16;4.50;;;1.90;;
3006;SDS011;1513;47.650;10.720;2022-10-16T06:42:20;2.30;;;2.10;;
3006;SDS011;1513;47.650;10.720;2022-10-16T06:45:23;2.00;;;1.80;;
3006;SDS011;1513;47.650;10.720;2022-10-16T06:48:27;2.30;;;2.10;;
3006;SDS011;1513;47.650;10.720;2022-10-16T06:51:31;3.13;;;1.93;;
3006;SDS011;1513;47.650;10.720;2022-10-16T06:54:36;2.33;;;2.00;;
3006;SDS011;1513;47.650;10.720;2022-10-16T06:57:40;3.23;;;2.40;;
3006;SDS011;1513;47.650;10.720;2022-10-16T07:00:44;5.33;;;2.83;;
3006;SDS011;1513;47.650;10.720;2022-10-16T07:03:48;6.37;;;3.50;;
3006;SDS011;1513;47.650;10.720;2022-10-16T07:06:51;6.10;;;4.30;;
3006;SDS011;1513;47.650;10.720;2022-10-16T07:09:55;6.17;;;4.53;;
3006;SDS011;1513;47.650;10.720;2022-10-16T07:12:58;7.83;;;4.60;;
3006;SDS011;1513;47.650;10.720;2022-10-16T07:16:12;17.83;;;8.83;;
3006;SDS011;1513;47.650;10.720;2022-10-16T07:19:17;9.33;;;6.50;;
3006;SDS011;1513;47.650;10.720;2022-10-16T07:22:20;9.50;;;6.40;;
3006;SDS011;1513;47.650;10.720;2022-10-16T07:25:24;7.53;;;5.53;;
3006;SDS011;1513;47.650;10.720;2022-10-16T07:28:27;10.07;;;5.90;;
3006;SDS011;1513;47.650;10.720;2022-10-16T07:31:31;13.23;;;6.97;;
3006;SDS011;1513;47.650;10.720;2022-10-16T07:34:35;9.00;;;6.60;;
3006;SDS011;1513;47.650;10.720;2022-10-16T07:37:39;8.10;;;6.40;;
3006;SDS011;1513;47.650;10.720;2022-10-16T07:40:46;9.40;;;6.23;;
3006;SDS011;1513;47.650;10.720;2022-10-16T07:43:51;4.10;;;2.00;;
3006;SDS011;1513;47.650;10.720;2022-10-16T07:46:55;3.20;;;1.37;;
3006;SDS011;1513;47.650;10.720;2022-10-16T07:49:59;1.30;;;1.30;;
3006;SDS011;1513;47.650;10.720;2022-10-16T07:53:02;1.40;;;1.30;;
3006;SDS011;1513;47.650;10.720;2022-10-16T07:56:06;1.63;;;1.20;;
3006;SDS011;1513;47.650;10.720;2022-10-16T07:59:10;3.57;;;1.40;;
3006;SDS011;1513;47.650;10.720;2022-10-16T08:02:14;4.43;;;1.60;;
3006;SDS011;1513;47.650;10.720;2022-10-16T08:05:18;2.33;;;1.30;;
3006;SDS011;1513;47.650;10.720;2022-10-16T08:08:22;2.63;;;1.50;;
3006;SDS011;1513;47.650;10.720;2022-10-16T08:11:25;1.67;;;1.57;;
3006;SDS011;1513;47.650;10.720;2022-10-16T08:14:29;2.43;;;1.77;;
3006;SDS011;1513;47.650;10.720;2022-10-16T08:17:32;1.70;;;1.60;;
3006;SDS011;1513;47.650;10.720;2022-10-16T08:20:36;3.00;;;1.57;;
3006;SDS011;1513;47.650;10.720;2022-10-16T08:23:40;3.40;;;1.47;;
3006;SDS011;1513;47.650;10.720;2022-10-16T08:26:43;1.93;;;1.60;;
3006;SDS011;1513;47.650;10.720;2022-10-16T08:29:48;3.23;;;1.60;;
3006;SDS011;1513;47.650;10.720;2022-10-16T08:32:51;1.63;;;1.53;;
3006;SDS011;1513;47.650;10.720;2022-10-16T08:35:55;1.67;;;1.57;;
3006;SDS011;1513;47.650;10.720;2022-10-16T08:38:58;1.67;;;1.57;;
3006;SDS011;1513;47.650;10.720;2022-10-16T08:45:20;3.33;;;1.60;;
3006;SDS011;1513;47.650;10.720;2022-10-16T08:51:54;3.43;;;1.60;;
3006;SDS011;1513;47.650;10.720;2022-10-16T08:54:59;1.50;;;1.40;;
3006;SDS011;1513;47.650;10.720;2022-10-16T08:58:08;4.07;;;1.37;;
3006;SDS011;1513;47.650;10.720;2022-10-16T09:01:41;2.87;;;1.30;;
3006;SDS011;1513;47.650;10.720;2022-10-16T09:04:52;4.30;;;1.57;;
3006;SDS011;1513;47.650;10.720;2022-10-16T09:08:09;1.73;;;1.60;;
3006;SDS011;1513;47.650;10.720;2022-10-16T09:18:16;2.17;;;1.70;;
3006;SDS011;1513;47.650;10.720;2022-10-16T09:21:32;2.30;;;1.60;;
3006;SDS011;1513;47.650;10.720;2022-10-16T09:24:38;1.63;;;1.53;;
3006;SDS011;1513;47.650;10.720;2022-10-16T09:27:43;1.50;;;1.40;;
3006;SDS011;1513;47.650;10.720;2022-10-16T09:30:50;2.60;;;1.70;;
3006;SDS011;1513;47.650;10.720;2022-10-16T09:34:00;3.47;;;2.00;;
3006;SDS011;1513;47.650;10.720;2022-10-16T09:37:14;2.37;;;2.17;;
3006;SDS011;1513;47.650;10.720;2022-10-16T09:40:24;2.20;;;2.00;;
3006;SDS011;1513;47.650;10.720;2022-10-16T09:47:01;2.10;;;1.90;;
3006;SDS011;1513;47.650;10.720;2022-10-16T09:50:15;1.60;;;1.50;;
3006;SDS011;1513;47.650;10.720;2022-10-16T09:53:26;1.77;;;1.67;;
3006;SDS011;1513;47.650;10.720;2022-10-16T09:56:46;1.60;;;1.50;;
3006;SDS011;1513;47.650;10.720;2022-10-16T09:59:55;2.73;;;2.47;;
3006;SDS011;1513;47.650;10.720;2022-10-16T10:02:59;1.60;;;1.50;;
3006;SDS011;1513;47.650;10.720;2022-10-16T10:06:16;1.90;;;1.77;;
3006;SDS011;1513;47.650;10.720;2022-10-16T10:09:32;2.60;;;1.87;;
3006;SDS011;1513;47.650;10.720;2022-10-16T10:12:41;1.50;;;1.40;;
3006;SDS011;1513;47.650;10.720;2022-10-16T10:15:45;1.70;;;1.60;;
3006;SDS011;1513;47.650;10.720;2022-10-16T10:18:57;1.57;;;1.40;;
3006;SDS011;1513;47.650;10.720;2022-10-16T10:22:01;2.57;;;1.57;;
3006;SDS011;1513;47.650;10.720;2022-10-16T10:25:20;1.20;;;1.00;;
3006;SDS011;1513;47.650;10.720;2022-10-16T10:42:20;1.73;;;1.10;;
3006;SDS011;1513;47.650;10.720;2022-10-16T10:45:39;1.40;;;1.13;;
3006;SDS011;1513;47.650;10.720;2022-10-16T10:49:02;1.17;;;1.07;;
3006;SDS011;1513;47.650;10.720;2022-10-16T10:56:04;6.70;;;0.80;;
3006;SDS011;1513;47.650;10.720;2022-10-16T11:02:34;0.87;;;0.87;;
3006;SDS011;1513;47.650;10.720;2022-10-16T11:06:06;13.10;;;1.33;;
3006;SDS011;1513;47.650;10.720;2022-10-16T11:09:20;3.07;;;0.90;;
3006;SDS011;1513;47.650;10.720;2022-10-16T11:12:31;0.80;;;0.80;;
3006;SDS011;1513;47.650;10.720;2022-10-16T11:15:41;3.17;;;1.10;;
3006;SDS011;1513;47.650;10.720;2022-10-16T11:18:51;2.50;;;0.93;;
3006;SDS011;1513;47.650;10.720;2022-10-16T11:25:45;6.30;;;1.10;;
3006;SDS011;1513;47.650;10.720;2022-10-16T11:28:44;2.73;;;0.90;;
3006;SDS011;1513;47.650;10.720;2022-10-16T11:31:57;0.70;;;0.70;;
3006;SDS011;1513;47.650;10.720;2022-10-16T11:35:11;0.80;;;0.80;;
3006;SDS011;1513;47.650;10.720;2022-10-16T11:41:41;2.60;;;0.90;;
3006;SDS011;1513;47.650;10.720;2022-10-16T11:48:41;2.20;;;0.80;;
3006;SDS011;1513;47.650;10.720;2022-10-16T11:55:33;0.80;;;0.80;;
3006;SDS011;1513;47.650;10.720;2022-10-16T12:05:44;1.33;;;1.23;;
3006;SDS011;1513;47.650;10.720;2022-10-16T12:08:53;1.63;;;1.17;;
3006;SDS011;1513;47.650;10.720;2022-10-16T12:11:59;1.20;;;0.90;;
3006;SDS011;1513;47.650;10.720;2022-10-16T12:18:26;0.90;;;0.90;;
3006;SDS011;1513;47.650;10.720;2022-10-16T12:21:30;1.43;;;1.33;;
3006;SDS011;1513;47.650;10.720;2022-10-16T12:24:38;2.60;;;1.30;;
3006;SDS011;1513;47.650;10.720;2022-10-16T12:27:44;1.30;;;1.20;;
3006;SDS011;1513;47.650;10.720;2022-10-16T12:30:52;2.00;;;1.00;;
3006;SDS011;1513;47.650;10.720;2022-10-16T12:34:01;4.50;;;1.70;;
3006;SDS011;1513;47.650;10.720;2022-10-16T12:37:24;2.10;;;1.47;;
3006;SDS011;1513;47.650;10.720;2022-10-16T12:40:31;2.30;;;1.70;;
3006;SDS011;1513;47.650;10.720;2022-10-16T12:43:45;1.30;;;1.20;;
3006;SDS011;1513;47.650;10.720;2022-10-16T12:46:50;3.70;;;1.23;;
3006;SDS011;1513;47.650;10.720;2022-10-16T12:49:54;1.97;;;1.10;;
3006;SDS011;1513;47.650;10.720;2022-10-16T12:52:58;1.37;;;1.27;;
3006;SDS011;1513;47.650;10.720;2022-10-16T12:56:16;0.90;;;0.90;;
3006;SDS011;1513;47.650;10.720;2022-10-16T12:59:28;1.07;;;0.97;;
3006;SDS011;1513;47.650;10.720;2022-10-16T13:13:44;2.40;;;0.97;;
3006;SDS011;1513;47.650;10.720;2022-10-16T13:30:44;1.80;;;0.93;;
3006;SDS011;1513;47.650;10.720;2022-10-16T13:33:58;1.63;;;1.00;;
3006;SDS011;1513;47.650;10.720;2022-10-16T13:37:02;1.13;;;1.07;;
3006;SDS011;1513;47.650;10.720;2022-10-16T13:40:19;3.90;;;1.10;;
3006;SDS011;1513;47.650;10.720;2022-10-16T13:43:32;4.97;;;0.97;;
3006;SDS011;1513;47.650;10.720;2022-10-16T13:47:01;1.23;;;0.93;;
3006;SDS011;1513;47.650;10.720;2022-10-16T13:50:09;1.23;;;0.93;;
3006;SDS011;1513;47.650;10.720;2022-10-16T13:53:15;1.00;;;0.93;;
3006;SDS011;1513;47.650;10.720;2022-10-16T13:56:20;0.90;;;0.90;;
3006;SDS011;1513;47.650;10.720;2022-10-16T13:59:32;0.90;;;0.90;;
3006;SDS011;1513;47.650;10.720;2022-10-16T14:02:37;4.00;;;1.10;;
3006;SDS011;1513;47.650;10.720;2022-10-16T14:05:49;0.90;;;0.90;;
3006;SDS011;1513;47.650;10.720;2022-10-16T14:09:03;1.83;;;1.00;;
3006;SDS011;1513;47.650;10.720;2022-10-16T14:12:08;1.47;;;1.37;;
3006;SDS011;1513;47.650;10.720;2022-10-16T14:15:17;1.33;;;1.10;;
3006;SDS011;1513;47.650;10.720;2022-10-16T14:18:22;1.20;;;1.07;;
3006;SDS011;1513;47.650;10.720;2022-10-16T14:21:27;0.90;;;0.90;;
3006;SDS011;1513;47.650;10.720;2022-10-16T14:24:34;1.90;;;0.87;;
3006;SDS011;1513;47.650;10.720;2022-10-16T14:27:38;1.67;;;0.90;;
3006;SDS011;1513;47.650;10.720;2022-10-16T14:34:36;1.83;;;1.10;;
3006;SDS011;1513;47.650;10.720;2022-10-16T14:37:42;1.10;;;1.10;;
3006;SDS011;1513;47.650;10.720;2022-10-16T14:40:47;1.17;;;1.07;;
3006;SDS011;1513;47.650;10.720;2022-10-16T14:44:01;0.80;;;0.80;;
3006;SDS011;1513;47.650;10.720;2022-10-16T14:47:07;3.10;;;1.20;;
3006;SDS011;1513;47.650;10.720;2022-10-16T14:50:12;0.90;;;0.90;;
3006;SDS011;1513;47.650;10.720;2022-10-16T14:53:15;1.00;;;1.00;;
3006;SDS011;1513;47.650;10.720;2022-10-16T14:56:21;1.63;;;1.00;;
3006;SDS011;1513;47.650;10.720;2022-10-16T14:59:36;0.93;;;0.93;;
3006;SDS011;1513;47.650;10.720;2022-10-16T15:02:44;3.03;;;1.77;;
3006;SDS011;1513;47.650;10.720;2022-10-16T15:05:48;4.10;;;1.20;;
3006;SDS011;1513;47.650;10.720;2022-10-16T15:08:51;5.50;;;1.10;;
3006;SDS011;1513;47.650;10.720;2022-10-16T15:11:55;1.30;;;1.10;;
3006;SDS011;1513;47.650;10.720;2022-10-16T15:14:58;0.97;;;0.97;;
3006;SDS011;1513;47.650;10.720;2022-10-16T15:18:02;1.97;;;1.00;;
3006;SDS011;1513;47.650;10.720;2022-10-16T15:21:06;4.00;;;1.23;;
3006;SDS011;1513;47.650;10.720;2022-10-16T15:24:14;1.47;;;1.17;;
3006;SDS011;1513;47.650;10.720;2022-10-16T15:27:18;0.93;;;0.90;;
3006;SDS011;1513;47.650;10.720;2022-10-16T15:30:21;1.60;;;1.10;;
3006;SDS011;1513;47.650;10.720;2022-10-16T15:33:26;1.00;;;1.00;;
3006;SDS011;1513;47.650;10.720;2022-10-16T15:36:36;3.13;;;1.33;;
3006;SDS011;1513;47.650;10.720;2022-10-16T15:39:41;2.00;;;1.20;;
3006;SDS011;1513;47.650;10.720;2022-10-16T15:42:44;2.40;;;1.40;;
3006;SDS011;1513;47.650;10.720;2022-10-16T15:45:54;3.40;;;1.63;;
3006;SDS011;1513;47.650;10.720;2022-10-16T15:49:03;1.67;;;1.40;;
3006;SDS011;1513;47.650;10.720;2022-10-16T15:52:07;2.17;;;1.60;;
3006;SDS011;1513;47.650;10.720;2022-10-16T15:55:11;2.13;;;2.03;;
3006;SDS011;1513;47.650;10.720;2022-10-16T15:58:16;1.90;;;1.80;;
3006;SDS011;1513;47.650;10.720;2022-10-16T16:01:20;2.80;;;2.00;;
3006;SDS011;1513;47.650;10.720;2022-10-16T16:04:24;9.10;;;2.70;;
3006;SDS011;1513;47.650;10.720;2022-10-16T16:07:27;2.73;;;1.70;;
3006;SDS011;1513;47.650;10.720;2022-10-16T16:10:31;3.57;;;1.80;;
3006;SDS011;1513;47.650;10.720;2022-10-16T16:13:34;3.00;;;1.67;;
3006;SDS011;1513;47.650;10.720;2022-10-16T16:16:41;2.10;;;1.87;;
3006;SDS011;1513;47.650;10.720;2022-10-16T16:19:45;2.47;;;1.70;;
3006;SDS011;1513;47.650;10.720;2022-10-16T16:22:49;2.50;;;2.30;;
3006;SDS011;1513;47.650;10.720;2022-10-16T16:26:54;1.60;;;1.50;;
3006;SDS011;1513;47.650;10.720;2022-10-16T16:29:29;3.80;;;2.07;;
3006;SDS011;1513;47.650;10.720;2022-10-16T16:32:34;2.03;;;1.80;;
3006;SDS011;1513;47.650;10.720;2022-10-16T16:35:38;1.87;;;1.60;;
3006;SDS011;1513;47.650;10.720;2022-10-16T16:38:41;6.80;;;1.83;;
3006;SDS011;1513;47.650;10.720;2022-10-16T16:41:45;1.77;;;1.67;;
3006;SDS011;1513;47.650;10.720;2022-10-16T16:44:49;2.70;;;1.70;;
3006;SDS011;1513;47.650;10.720;2022-10-16T16:47:52;2.40;;;1.60;;
3006;SDS011;1513;47.650;10.720;2022-10-16T16:50:56;2.20;;;1.43;;
3006;SDS011;1513;47.650;10.720;2022-10-16T16:53:59;2.83;;;1.60;;
3006;SDS011;1513;47.650;10.720;2022-10-16T16:57:03;2.40;;;1.93;;
3006;SDS011;1513;47.650;10.720;2022-10-16T17:00:07;1.70;;;1.60;;
3006;SDS011;1513;47.650;10.720;2022-10-16T17:03:11;3.70;;;1.63;;
3006;SDS011;1513;47.650;10.720;2022-10-16T17:06:14;2.10;;;1.67;;
3006;SDS011;1513;47.650;10.720;2022-10-16T17:09:18;2.20;;;1.60;;
3006;SDS011;1513;47.650;10.720;2022-10-16T17:12:22;1.60;;;1.50;;
3006;SDS011;1513;47.650;10.720;2022-10-16T17:15:26;1.40;;;1.33;;
3006;SDS011;1513;47.650;10.720;2022-10-16T17:18:29;6.73;;;1.57;;
3006;SDS011;1513;47.650;10.720;2022-10-16T17:21:33;1.80;;;1.27;;
3006;SDS011;1513;47.650;10.720;2022-10-16T17:24:37;1.60;;;1.50;;
3006;SDS011;1513;47.650;10.720;2022-10-16T17:27:40;1.53;;;1.43;;
3006;SDS011;1513;47.650;10.720;2022-10-16T17:30:44;2.40;;;1.50;;
3006;SDS011;1513;47.650;10.720;2022-10-16T17:33:48;1.97;;;1.80;;
3006;SDS011;1513;47.650;10.720;2022-10-16T17:36:53;3.03;;;1.80;;
3006;SDS011;1513;47.650;10.720;2022-10-16T17:39:56;2.20;;;2.00;;
3006;SDS011;1513;47.650;10.720;2022-10-16T17:43:00;1.90;;;1.77;;
3006;SDS011;1513;47.650;10.720;2022-10-16T17:46:04;2.43;;;1.70;;
3006;SDS011;1513;47.650;10.720;2022-10-16T17:49:08;10.00;;;3.40;;
3006;SDS011;1513;47.650;10.720;2022-10-16T17:52:12;5.07;;;3.20;;
3006;SDS011;1513;47.650;10.720;2022-10-16T17:55:15;3.07;;;2.73;;
3006;SDS011;1513;47.650;10.720;2022-10-16T17:58:19;4.70;;;2.43;;
3006;SDS011;1513;47.650;10.720;2022-10-16T18:01:23;2.50;;;2.10;;
3006;SDS011;1513;47.650;10.720;2022-10-16T18:04:28;2.70;;;1.90;;
3006;SDS011;1513;47.650;10.720;2022-10-16T18:07:31;5.67;;;1.70;;
3006;SDS011;1513;47.650;10.720;2022-10-16T18:10:35;2.37;;;2.03;;
3006;SDS011;1513;47.650;10.720;2022-10-16T18:13:39;2.07;;;1.70;;
3006;SDS011;1513;47.650;10.720;2022-10-16T18:16:42;5.50;;;1.70;;
3006;SDS011;1513;47.650;10.720;2022-10-16T18:19:45;2.77;;;1.47;;
3006;SDS011;1513;47.650;10.720;2022-10-16T18:22:49;1.57;;;1.47;;
3006;SDS011;1513;47.650;10.720;2022-10-16T18:25:54;7.57;;;2.20;;
3006;SDS011;1513;47.650;10.720;2022-10-16T18:28:58;6.00;;;2.40;;
3006;SDS011;1513;47.650;10.720;2022-10-16T18:32:02;3.37;;;2.03;;
3006;SDS011;1513;47.650;10.720;2022-10-16T18:35:06;2.03;;;1.83;;
3006;SDS011;1513;47.650;10.720;2022-10-16T18:38:10;1.57;;;1.47;;
3006;SDS011;1513;47.650;10.720;2022-10-16T18:41:13;1.87;;;1.70;;
3006;SDS011;1513;47.650;10.720;2022-10-16T18:44:17;1.33;;;1.23;;
3006;SDS011;1513;47.650;10.720;2022-10-16T18:47:20;2.23;;;1.53;;
3006;SDS011;1513;47.650;10.720;2022-10-16T18:50:24;2.20;;;1.60;;
3006;SDS011;1513;47.650;10.720;2022-10-16T18:53:27;1.27;;;1.17;;
3006;SDS011;1513;47.650;10.720;2022-10-16T18:56:31;1.40;;;1.30;;
3006;SDS011;1513;47.650;10.720;2022-10-16T18:59:34;1.40;;;1.33;;
3006;SDS011;1513;47.650;10.720;2022-10-16T19:02:38;1.30;;;1.20;;
3006;SDS011;1513;47.650;10.720;2022-10-16T19:05:41;4.97;;;1.40;;
3006;SDS011;1513;47.650;10.720;2022-10-16T19:08:47;1.60;;;1.50;;
3006;SDS011;1513;47.650;10.720;2022-10-16T19:11:51;5.07;;;1.83;;
3006;SDS011;1513;47.650;10.720;2022-10-16T19:14:55;2.80;;;1.80;;
3006;SDS011;1513;47.650;10.720;2022-10-16T19:17:58;2.67;;;1.63;;
3006;SDS011;1513;47.650;10.720;2022-10-16T19:21:02;2.17;;;1.87;;
3006;SDS011;1513;47.650;10.720;2022-10-16T19:24:09;2.10;;;1.50;;
3006;SDS011;1513;47.650;10.720;2022-10-16T19:27:14;1.87;;;1.77;;
3006;SDS011;1513;47.650;10.720;2022-10-16T19:30:18;1.50;;;1.40;;
3006;SDS011;1513;47.650;10.720;2022-10-16T19:33:21;1.87;;;1.67;;
3006;SDS011;1513;47.650;10.720;2022-10-16T19:36:26;3.10;;;2.20;;
3006;SDS011;1513;47.650;10.720;2022-10-16T19:39:31;8.67;;;3.77;;
3006;SDS011;1513;47.650;10.720;2022-10-16T19:42:35;11.23;;;5.60;;
3006;SDS011;1513;47.650;10.720;2022-10-16T19:45:44;9.63;;;5.90;;
3006;SDS011;1513;47.650;10.720;2022-10-16T19:48:48;9.53;;;4.30;;
3006;SDS011;1513;47.650;10.720;2022-10-16T19:51:58;13.83;;;4.80;;
3006;SDS011;1513;47.650;10.720;2022-10-16T19:55:05;7.43;;;4.40;;
3006;SDS011;1513;47.650;10.720;2022-10-16T19:58:09;9.47;;;4.43;;
3006;SDS011;1513;47.650;10.720;2022-10-16T20:01:13;8.53;;;5.50;;
3006;SDS011;1513;47.650;10.720;2022-10-16T20:04:17;8.03;;;4.90;;
3006;SDS011;1513;47.650;10.720;2022-10-16T20:07:20;8.47;;;5.23;;
3006;SDS011;1513;47.650;10.720;2022-10-16T20:10:24;7.87;;;5.40;;
3006;SDS011;1513;47.650;10.720;2022-10-16T20:13:28;9.20;;;5.00;;
3006;SDS011;1513;47.650;10.720;2022-10-16T20:16:32;12.00;;;6.10;;
3006;SDS011;1513;47.650;10.720;2022-10-16T20:19:36;7.33;;;5.20;;
3006;SDS011;1513;47.650;10.720;2022-10-16T20:22:40;8.07;;;5.47;;
3006;SDS011;1513;47.650;10.720;2022-10-16T20:25:44;7.50;;;5.13;;
3006;SDS011;1513;47.650;10.720;2022-10-16T20:28:48;6.07;;;4.00;;
3006;SDS011;1513;47.650;10.720;2022-10-16T20:31:51;5.77;;;4.17;;
3006;SDS011;1513;47.650;10.720;2022-10-16T20:34:54;7.00;;;4.87;;
3006;SDS011;1513;47.650;10.720;2022-10-16T20:37:58;5.40;;;4.00;;